Time;durP1;ratioP1;P1;durP2;ratioP2;P2;SDS_P1;SDS_P2;PMS_P1;PMS_P2;Temp;Humidity;BMP_temperature;BMP_pressure;BME280_temperature;BME280_humidity;BME280_pressure;Samples;Min_cycle;Max_cycle;Signal;HPM_P1;HPM_P2
2022/09/07 00:01:21;;;;;;;;;;;;;;;4.55;100.00;100354.55;1735943;82;21110;-66
2022/09/07 00:03:47;;;;;;;37.75;21.37;;;;;;;4.49;100.00;100357.09;1715849;82;20128;-66
2022/09/07 00:06:13;;;;;;;37.00;21.07;;;;;;;4.37;100.00;100360.67;1713230;82;21134;-66
2022/09/07 00:08:42;;;;;;;30.25;19.12;;;;;;;4.30;100.00;100360.71;1712710;82;21095;-66
2022/09/07 00:11:16;;;;;;;33.65;18.52;;;;;;;4.29;100.00;100354.17;1736049;82;21099;-66
2022/09/07 00:13:43;;;;;;;30.62;18.77;;;;;;;4.34;100.00;100354.37;1733028;81;21063;-66
2022/09/07 00:16:18;;;;;;;34.48;19.30;;;;;;;4.37;100.00;100356.11;1730416;82;21103;-66
2022/09/07 00:18:44;;;;;;;32.28;19.62;;;;;;;4.37;100.00;100357.45;1712198;82;21083;-66
2022/09/07 00:21:11;;;;;;;30.00;18.45;;;;;;;4.32;100.00;100361.31;1709294;82;21566;-66
2022/09/07 00:23:38;;;;;;;30.62;18.27;;;;;;;4.27;100.00;100356.27;1709138;82;21011;-66
2022/09/07 00:26:12;;;;;;;27.50;16.62;;;;;;;4.23;100.00;100355.87;1711105;82;21072;-65
2022/09/07 00:28:39;;;;;;;27.82;16.12;;;;;;;4.25;100.00;100348.39;1716146;82;20976;-66
2022/09/07 00:31:13;;;;;;;27.40;17.35;;;;;;;4.28;100.00;100349.33;1740250;81;21050;-65
2022/09/07 00:33:40;;;;;;;27.75;16.80;;;;;;;4.28;100.00;100347.98;1729939;82;21003;-65
2022/09/07 00:36:06;;;;;;;27.85;16.97;;;;;;;4.21;100.00;100349.89;1729216;82;21095;-66
2022/09/07 00:38:34;;;;;;;26.27;16.00;;;;;;;4.16;100.00;100344.83;1726865;82;21833;-66
2022/09/07 00:41:01;;;;;;;;;;;;;;;4.16;100.00;100343.48;1730219;82;21090;-66
2022/09/07 00:43:36;;;;;;;25.37;13.58;;;;;;;4.21;100.00;100338.28;1743684;82;20141;-66
2022/09/07 00:46:04;;;;;;;24.67;13.80;;;;;;;4.23;100.00;100344.27;1736028;82;21128;-66
2022/09/07 00:48:39;;;;;;;23.65;14.00;;;;;;;4.21;100.00;100338.28;1723459;82;21023;-66
2022/09/07 00:51:08;;;;;;;22.30;13.28;;;;;;;4.17;100.00;100338.41;1742685;82;21146;-66
2022/09/07 00:53:40;;;;;;;22.55;13.08;;;;;;;4.14;100.00;100334.28;1739232;80;21054;-66
2022/09/07 00:56:07;;;;;;;21.02;12.93;;;;;;;4.15;100.00;100334.56;1730795;82;21094;-66
2022/09/07 00:58:33;;;;;;;20.55;11.73;;;;;;;4.19;100.00;100331.75;1738368;82;21082;-66
2022/09/07 01:01:00;;;;;;;22.73;12.53;;;;;;;4.20;100.00;100333.41;1703736;82;21604;-66
2022/09/07 01:03:31;;;;;;;19.80;11.78;;;;;;;4.18;100.00;100331.98;1733195;82;21013;-66
2022/09/07 01:06:08;;;;;;;19.73;12.58;;;;;;;4.15;100.00;100332.38;1708045;84;21058;-66
2022/09/07 01:08:34;;;;;;;20.12;12.45;;;;;;;4.09;100.00;100328.70;1743185;82;21031;-66
2022/09/07 01:11:01;;;;;;;22.52;12.50;;;;;;;4.09;100.00;100321.96;1721701;82;21097;-66
2022/09/07 01:13:29;;;;;;;20.65;11.33;;;;;;;4.14;100.00;100321.32;1694362;84;21066;-66
2022/09/07 01:16:15;;;;;;;20.55;12.63;;;;;;;4.18;100.00;100326.59;1738491;82;21073;-66
2022/09/07 01:18:57;;;;;;;19.87;11.83;;;;;;;4.18;100.00;100325.25;1750136;82;21055;-66
2022/09/07 01:21:30;;;;;;;20.32;11.78;;;;;;;4.11;100.00;100319.86;1728543;82;21086;-66
2022/09/07 01:24:14;;;;;;;19.30;11.63;;;;;;;4.05;100.00;100320.73;1737761;82;21010;-65
2022/09/07 01:27:36;;;;;;;20.00;11.12;;;;;;;4.05;100.00;100315.34;1737706;82;21103;-65
2022/09/07 01:30:07;;;;;;;17.65;10.43;;;;;;;4.07;100.00;100314.63;1740491;82;21103;-66
2022/09/07 01:33:22;;;;;;;17.60;10.40;;;;;;;4.04;100.00;100316.38;1728451;81;21454;-65
2022/09/07 01:36:15;;;;;;;19.48;10.95;;;;;;;4.03;100.00;100317.96;1720107;82;21110;-66
2022/09/07 01:38:46;;;;;;;18.20;10.80;;;;;;;3.93;100.00;100318.43;1723095;82;21082;-66
2022/09/07 01:41:24;;;;;;;16.75;10.48;;;;;;;3.83;100.00;100309.44;1730351;82;21079;-66
2022/09/07 01:44:10;;;;;;;19.87;10.80;;;;;;;3.82;100.00;100313.71;1714484;82;21388;-66
2022/09/07 01:47:00;;;;;;;18.32;10.75;;;;;;;3.86;100.00;100305.52;1708346;82;22021;-66
2022/09/07 01:49:52;;;;;;;16.35;10.15;;;;;;;3.89;100.00;100303.73;1736983;82;22214;-66
2022/09/07 01:52:45;;;;;;;17.40;10.10;;;;;;;3.86;100.00;100299.58;1728801;81;21063;-65
2022/09/07 01:55:32;;;;;;;17.95;10.43;;;;;;;3.82;100.00;100298.90;1695678;82;21103;-66
2022/09/07 01:58:03;;;;;;;;;;;;;;;3.74;100.00;100309.91;1710502;82;21098;-66
2022/09/07 02:00:29;;;;;;;16.15;9.38;;;;;;;3.72;100.00;100304.72;1708918;82;20180;-66
2022/09/07 02:03:07;;;;;;;18.00;9.83;;;;;;;3.71;100.00;100307.12;1727329;82;21067;-66
2022/09/07 02:06:08;;;;;;;15.68;9.23;;;;;;;3.73;100.00;100304.20;1737268;82;21675;-66
2022/09/07 02:08:57;;;;;;;17.75;9.48;;;;;;;3.71;100.00;100298.22;1734153;81;21031;-66
2022/09/07 02:11:35;;;;;;;16.60;10.32;;;;;;;3.65;100.00;100299.08;1722285;82;21353;-66
2022/09/07 02:14:12;;;;;;;19.17;9.88;;;;;;;3.58;100.00;100295.59;1709235;84;21000;-66
2022/09/07 02:16:56;;;;;;;19.57;10.48;;;;;;;3.55;100.00;100298.16;1707390;82;21063;-66
2022/09/07 02:19:22;;;;;;;18.20;10.23;;;;;;;3.59;100.00;100291.83;1729341;82;21010;-66
2022/09/07 02:21:53;;;;;;;17.10;9.88;;;;;;;3.59;100.00;100289.97;1738789;82;21578;-66
2022/09/07 02:24:31;;;;;;;18.17;10.82;;;;;;;3.61;100.00;100286.56;1737260;81;21028;-66
2022/09/07 02:26:57;;;;;;;19.80;11.55;;;;;;;3.58;100.00;100288.86;1736483;82;21135;-66
2022/09/07 02:29:24;;;;;;;17.32;10.55;;;;;;;3.54;100.00;100287.63;1730498;82;21067;-66
2022/09/07 02:31:50;;;;;;;19.00;11.00;;;;;;;3.55;100.00;100286.56;1741124;82;21113;-66
2022/09/07 02:34:18;;;;;;;20.55;11.80;;;;;;;3.57;100.00;100283.98;1746678;80;21003;-66
2022/09/07 02:36:47;;;;;;;19.82;11.83;;;;;;;3.57;100.00;100283.98;1737513;82;21114;-66
2022/09/07 02:39:13;;;;;;;21.35;11.57;;;;;;;3.56;100.00;100285.02;1729489;82;21014;-66
2022/09/07 02:41:41;;;;;;;18.90;11.18;;;;;;;3.50;100.00;100283.19;1750097;82;21118;-66
2022/09/07 02:44:17;;;;;;;19.73;10.90;;;;;;;3.44;100.00;100283.50;1747496;82;21039;-66
2022/09/07 02:46:58;;;;;;;19.35;10.40;;;;;;;3.44;100.00;100283.50;1712071;83;21102;-66
2022/09/07 02:49:51;;;;;;;20.88;10.72;;;;;;;3.46;100.00;100291.37;1702464;82;21035;-66
2022/09/07 02:52:47;;;;;;;19.25;10.38;;;;;;;3.47;100.00;100289.00;1729611;82;21023;-66
2022/09/07 02:55:59;;;;;;;19.30;10.98;;;;;;;3.40;100.00;100290.88;1726437;81;21102;-66
2022/09/07 02:58:40;;;;;;;18.80;10.48;;;;;;;3.29;100.00;100284.80;1684245;84;21105;-66
2022/09/07 03:01:39;;;;;;;15.53;9.65;;;;;;;3.18;100.00;100280.06;1736011;82;21094;-66
2022/09/07 03:04:19;;;;;;;17.87;10.90;;;;;;;3.17;100.00;100284.62;1737174;82;21412;-66
2022/09/07 03:07:12;;;;;;;16.85;9.65;;;;;;;3.19;100.00;100287.91;1691457;84;21581;-66
2022/09/07 03:09:42;;;;;;;15.93;10.10;;;;;;;3.18;100.00;100275.52;1745795;82;21007;-66
2022/09/07 03:12:09;;;;;;;16.87;10.50;;;;;;;3.11;100.00;100282.78;1748895;82;21568;-66
2022/09/07 03:14:38;;;;;;;16.85;9.85;;;;;;;3.07;100.00;100278.02;1742710;82;20995;-66
2022/09/07 03:17:04;;;;;;;18.85;10.08;;;;;;;3.01;100.00;100277.01;1696034;82;21558;-66
2022/09/07 03:19:31;;;;;;;18.55;10.10;;;;;;;3.02;100.00;100288.05;1733998;82;21034;-65
2022/09/07 03:21:58;;;;;;;17.10;10.70;;;;;;;3.05;100.00;100278.77;1733830;82;21070;-66
2022/09/07 03:24:25;;;;;;;17.98;9.68;;;;;;;3.08;100.00;100283.20;1744712;82;21549;-66
2022/09/07 03:26:51;;;;;;;18.15;10.63;;;;;;;3.07;100.00;100278.02;1747932;82;21099;-66
2022/09/07 03:29:18;;;;;;;18.10;10.90;;;;;;;3.01;100.00;100281.84;1743103;82;21055;-66
2022/09/07 03:31:45;;;;;;;17.27;9.93;;;;;;;2.97;100.00;100279.80;1734478;82;21074;-66
2022/09/07 03:34:11;;;;;;;15.25;9.38;;;;;;;2.95;100.00;100284.03;1696126;84;21546;-66
2022/09/07 03:36:38;;;;;;;;;;;;;;;2.97;100.00;100275.26;1695710;84;21130;-66
2022/09/07 03:39:05;;;;;;;15.30;8.68;;;;;;;3.01;100.00;100283.19;1685013;84;20179;-66
2022/09/07 03:41:32;;;;;;;15.08;9.28;;;;;;;2.99;100.00;100277.72;1679219;84;21117;-66
2022/09/07 03:46:43;;;;;;;16.57;9.55;;;;;;;2.98;100.00;100281.44;1775726;79;22878;-66
2022/09/07 03:49:10;;;;;;;17.42;10.13;;;;;;;2.87;100.00;100281.55;1742388;82;21038;-66
2022/09/07 03:51:38;;;;;;;19.87;10.23;;;;;;;2.91;100.00;100288.17;1741050;81;21558;-66
2022/09/07 03:54:04;;;;;;;17.90;10.18;;;;;;;2.97;100.00;100289.22;1744919;81;21352;-65
2022/09/07 03:56:31;;;;;;;16.20;10.18;;;;;;;3.01;100.00;100282.39;1748009;80;21111;-66
2022/09/07 03:58:58;;;;;;;19.57;11.12;;;;;;;3.03;100.00;100286.20;1741875;81;21038;-66
2022/09/07 04:01:25;;;;;;;19.00;10.70;;;;;;;3.03;100.00;100283.50;1742652;82;21106;-67
2022/09/07 04:03:51;;;;;;;18.48;10.25;;;;;;;3.03;100.00;100280.81;1742108;81;21030;-66
2022/09/07 04:06:18;;;;;;;15.08;9.95;;;;;;;3.08;100.00;100281.03;1745928;81;21031;-66
2022/09/07 04:08:46;;;;;;;15.53;9.80;;;;;;;3.15;100.00;100284.02;1746861;81;21613;-67
2022/09/07 04:11:15;;;;;;;16.67;10.53;;;;;;;3.23;100.00;100287.80;1733609;82;21153;-67
2022/09/07 04:13:42;;;;;;;17.82;10.78;;;;;;;3.29;100.00;100286.15;1741468;82;22103;-66
2022/09/07 04:16:15;;;;;;;;;;;;;;;3.29;100.00;100291.53;1746277;82;21091;-67
2022/09/07 04:18:42;;;;;;;16.05;9.48;;;;;;;3.30;100.00;100289.13;1747966;82;20134;-67
2022/09/07 04:21:08;;;;;;;16.40;9.23;;;;;;;3.28;100.00;100290.70;1739093;82;21125;-66
2022/09/07 04:23:38;;;;;;;13.40;8.48;;;;;;;3.35;100.00;100296.89;1677600;85;21581;-67
2022/09/07 04:26:05;;;;;;;13.85;8.43;;;;;;;3.49;100.00;100299.84;1700775;84;21166;-67
2022/09/07 04:28:32;;;;;;;13.93;8.33;;;;;;;3.63;100.00;100300.63;1676539;85;21071;-67
2022/09/07 04:31:01;;;;;;;14.78;8.80;;;;;;;3.74;100.00;100299.13;1690607;84;21062;-67
2022/09/07 04:33:30;;;;;;;14.35;8.93;;;;;;;3.80;100.00;100298.27;1694046;84;21526;-67
2022/09/07 04:35:59;;;;;;;15.98;8.80;;;;;;;3.85;100.00;100303.85;1700848;84;21151;-67
2022/09/07 04:38:26;;;;;;;15.35;8.40;;;;;;;3.91;100.00;100298.43;1685152;84;21078;-67
2022/09/07 04:41:01;;;;;;;13.30;7.55;;;;;;;4.00;100.00;100297.67;1701347;84;21614;-67
2022/09/07 04:43:30;;;;;;;13.98;7.83;;;;;;;4.15;100.00;100306.27;1704606;84;21457;-68
2022/09/07 04:45:56;;;;;;;13.75;8.38;;;;;;;4.28;100.00;100305.37;1695072;84;21142;-67
2022/09/07 04:48:23;;;;;;;14.60;8.73;;;;;;;4.38;100.00;100305.20;1671739;85;21590;-67
2022/09/07 04:50:51;;;;;;;14.83;9.10;;;;;;;4.43;100.00;100302.66;1677860;84;21173;-67
2022/09/07 04:53:17;;;;;;;14.85;8.10;;;;;;;4.50;100.00;100306.66;1662474;86;21056;-66
2022/09/07 04:55:43;;;;;;;;;;;;;;;4.60;100.00;100308.89;1670260;85;21089;-66
2022/09/07 04:58:10;;;;;;;14.95;7.90;;;;;;;4.75;100.00;100308.02;1683387;85;20140;-66
2022/09/07 05:00:38;;;;;;;13.50;8.00;;;;;;;4.86;100.00;100304.09;1726653;82;21609;-66
2022/09/07 05:03:05;;;;;;;;;;;;;;;5.00;100.00;100310.20;1729562;82;21034;-67
2022/09/07 05:05:33;;;;;;;13.03;8.68;;;;;;;5.08;100.00;100303.17;1715615;82;20121;-66
2022/09/07 05:08:00;;;;;;;14.55;7.80;;;;;;;5.14;100.00;100311.72;1690231;82;21103;-66
2022/09/07 05:10:27;;;;;;;;;;;;;;;5.34;100.00;100300.74;1725728;81;21094;-66
2022/09/07 05:12:54;;;;;;;13.83;8.55;;;;;;;5.62;100.00;100299.69;1724826;81;20125;-64
2022/09/07 05:15:21;;;;;;;13.68;8.25;;;;;;;5.97;100.00;100302.09;1731001;81;21044;-64
2022/09/07 05:17:49;;;;;;;12.18;8.13;;;;;;;6.39;100.00;100304.30;1727858;81;20975;-64
2022/09/07 05:20:18;;;;;;;12.63;8.08;;;;;;;6.86;100.00;100306.58;1735458;81;21044;-64
2022/09/07 05:22:45;;;;;;;11.22;7.83;;;;;;;7.36;100.00;100304.23;1717636;82;21519;-64
2022/09/07 05:25:11;;;;;;;13.45;7.08;;;;;;;7.90;100.00;100302.13;1730732;81;21087;-65
2022/09/07 05:27:39;;;;;;;12.85;6.87;;;;;;;8.44;100.00;100299.38;1710438;82;21083;-63
2022/09/07 05:30:08;;;;;;;11.12;6.60;;;;;;;8.93;100.00;100299.12;1727803;81;21413;-62
2022/09/07 05:32:34;;;;;;;11.12;7.08;;;;;;;9.41;100.00;100293.89;1724966;81;21039;-63
2022/09/07 05:35:01;;;;;;;;;;;;;;;9.96;100.00;100290.23;1732962;81;21047;-62
2022/09/07 05:37:27;;;;;;;11.43;6.33;;;;;;;10.45;100.00;100282.35;1724958;82;20135;-63
2022/09/07 05:39:55;;;;;;;11.85;7.10;;;;;;;10.79;100.00;100283.48;1735538;81;21031;-63
2022/09/07 05:42:22;;;;;;;12.25;6.97;;;;;;;11.15;100.00;100273.67;1731057;81;21083;-64
2022/09/07 05:44:48;;;;;;;10.98;6.12;;;;;;;11.52;100.00;100268.98;1719804;81;21071;-64
2022/09/07 05:47:15;;;;;;;;;;;;;;;11.90;100.00;100266.47;1720578;82;22279;-63
2022/09/07 05:49:42;;;;;;;11.00;6.37;;;;;;;12.31;100.00;100269.58;1714021;82;20127;-65
2022/09/07 05:52:08;;;;;;;;;;;;;;;12.66;100.00;100263.33;1725889;82;21126;-65
2022/09/07 05:54:35;;;;;;;11.75;6.35;;;;;;;13.04;100.00;100259.20;1721254;81;20137;-65
2022/09/07 05:57:02;;;;;;;;;;;;;;;13.30;100.00;100249.09;1718573;82;21049;-65
2022/09/07 05:59:28;;;;;;;9.87;6.27;;;;;;;13.52;100.00;100255.05;1719315;81;20145;-62
2022/09/07 06:01:54;;;;;;;;;;;;;;;13.76;100.00;100255.23;1720884;82;22268;-65
2022/09/07 06:04:21;;;;;;;10.95;6.87;;;;;;;14.10;100.00;100255.35;1720929;82;21055;-65
2022/09/07 06:06:47;;;;;;;12.10;7.00;;;;;;;14.37;100.00;100258.50;1721147;81;21087;-65
2022/09/07 06:09:14;;;;;;;9.68;6.50;;;;;;;14.61;100.00;100251.74;1727430;82;21038;-65
2022/09/07 06:11:41;;;;;;;10.48;6.35;;;;;;;14.80;100.00;100261.74;1726141;81;21074;-64
2022/09/07 06:14:09;;;;;;;9.03;5.65;;;;;;;15.10;100.00;100259.27;1725500;81;20928;-65
2022/09/07 06:16:37;;;;;;;8.48;5.00;;;;;;;15.22;100.00;100254.77;1724552;81;21080;-65
2022/09/07 06:19:05;;;;;;;7.25;4.95;;;;;;;15.38;100.00;100258.42;1727663;82;21055;-64
2022/09/07 06:21:35;;;;;;;10.10;5.00;;;;;;;15.43;100.00;100252.90;1723627;82;21103;-64
2022/09/07 06:24:03;;;;;;;7.10;4.80;;;;;;;15.60;100.00;100253.00;1731801;82;20987;-64
2022/09/07 06:26:30;;;;;;;9.30;4.70;;;;;;;15.77;100.00;100256.09;1735201;82;21091;-66
2022/09/07 06:28:58;;;;;;;7.20;4.78;;;;;;;16.06;99.81;100257.36;1735591;81;21727;-65
2022/09/07 06:31:24;;;;;;;6.90;4.83;;;;;;;16.35;94.15;100262.18;1654891;85;21490;-65
2022/09/07 06:33:51;;;;;;;7.92;4.70;;;;;;;16.50;90.25;100260.59;1720225;82;21080;-65
2022/09/07 06:36:22;;;;;;;6.25;4.50;;;;;;;16.67;90.26;100260.08;1718708;81;21079;-64
2022/09/07 06:38:49;;;;;;;7.33;4.25;;;;;;;16.72;83.72;100264.92;1730331;81;21078;-64
2022/09/07 06:41:21;;;;;;;5.50;3.83;;;;;;;16.69;77.96;100263.33;1733160;81;21099;-65
2022/09/07 06:43:48;;;;;;;6.35;3.67;;;;;;;16.54;77.74;100260.81;1725928;82;21023;-64
2022/09/07 06:46:15;;;;;;;5.97;4.00;;;;;;;16.50;74.42;100264.71;1737662;80;21049;-64
2022/09/07 06:48:42;;;;;;;6.97;3.80;;;;;;;16.41;72.28;100260.43;1753661;80;21583;-65
2022/09/07 06:51:14;;;;;;;7.53;3.80;;;;;;;16.52;77.44;100261.65;1754522;81;21094;-64
2022/09/07 06:53:41;;;;;;;7.25;3.60;;;;;;;16.65;73.14;100261.73;1757126;80;22161;-64
2022/09/07 06:56:12;;;;;;;7.50;3.40;;;;;;;16.73;70.37;100259.69;1738391;81;21118;-64
2022/09/07 06:58:39;;;;;;;5.37;3.40;;;;;;;16.72;71.09;100264.13;1739489;81;20993;-65
2022/09/07 07:01:12;;;;;;;6.37;3.62;;;;;;;16.87;70.34;100266.61;1751439;81;21094;-64
2022/09/07 07:03:39;;;;;;;6.90;4.17;;;;;;;16.83;65.19;100262.27;1752365;81;20948;-65
2022/09/07 07:06:06;;;;;;;6.53;4.20;;;;;;;16.59;66.52;100268.98;1748219;81;21051;-65
2022/09/07 07:08:33;;;;;;;7.87;4.47;;;;;;;16.68;69.63;100271.34;1751926;81;21522;-65
2022/09/07 07:11:09;;;;;;;5.83;3.67;;;;;;;17.01;70.33;100268.84;1754864;81;21094;-65
2022/09/07 07:13:37;;;;;;;6.33;3.67;;;;;;;17.19;63.96;100268.53;1742421;81;20983;-63
2022/09/07 07:16:09;;;;;;;6.28;3.42;;;;;;;17.24;64.65;100261.57;1752986;81;21058;-63
2022/09/07 07:18:35;;;;;;;6.20;3.00;;;;;;;17.39;63.76;100256.58;1745580;81;20996;-64
2022/09/07 07:21:10;;;;;;;4.40;2.50;;;;;;;17.49;60.75;100252.84;1742391;80;21110;-65
2022/09/07 07:23:37;;;;;;;4.70;3.27;;;;;;;17.46;57.77;100256.20;1750737;81;21027;-65
2022/09/07 07:26:13;;;;;;;4.55;3.00;;;;;;;17.23;57.99;100248.92;1753161;82;21177;-64
2022/09/07 07:28:47;;;;;;;5.70;2.25;;;;;;;17.19;57.21;100252.84;1736569;81;21589;-65
2022/09/07 07:31:17;;;;;;;3.80;1.87;;;;;;;17.17;58.37;100259.78;1752460;80;21078;-65
2022/09/07 07:33:45;;;;;;;3.70;2.45;;;;;;;17.43;58.54;100253.48;1745900;81;21031;-64
2022/09/07 07:36:20;;;;;;;4.28;1.70;;;;;;;17.78;58.31;100255.33;1730998;81;21153;-64
2022/09/07 07:38:49;;;;;;;3.95;2.30;;;;;;;17.76;53.07;100250.11;1745650;81;21046;-64
2022/09/07 07:41:17;;;;;;;2.83;1.75;;;;;;;17.59;55.46;100249.92;1755270;81;21102;-64
2022/09/07 07:43:44;;;;;;;4.92;2.20;;;;;;;17.78;57.19;100241.56;1749942;81;21066;-64
2022/09/07 07:46:12;;;;;;;4.87;2.80;;;;;;;18.06;56.38;100243.72;1662059;85;21121;-65
2022/09/07 07:48:39;;;;;;;4.12;2.45;;;;;;;18.25;55.16;100249.32;1709423;82;21075;-66
2022/09/07 07:51:09;;;;;;;4.22;2.05;;;;;;;18.48;55.56;100243.85;1727359;82;21737;-64
2022/09/07 07:53:37;;;;;;;3.27;1.80;;;;;;;18.84;55.52;100252.38;1724309;82;21428;-65
2022/09/07 07:56:04;;;;;;;2.27;1.10;;;;;;;19.23;55.61;100241.98;1724673;82;21776;-64
2022/09/07 07:58:31;;;;;;;2.50;1.40;;;;;;;19.45;51.20;100232.05;1719635;82;21606;-65
2022/09/07 08:01:06;;;;;;;4.72;1.60;;;;;;;19.63;49.73;100230.39;1711566;82;21109;-65
2022/09/07 08:03:34;;;;;;;;;;;;;;;19.60;47.30;100240.70;1720314;82;21059;-64
2022/09/07 08:06:12;;;;;;;4.03;1.17;;;;;;;19.51;48.43;100237.66;1707680;82;20136;-64
2022/09/07 08:08:39;;;;;;;2.83;1.40;;;;;;;19.34;44.99;100238.38;1713855;82;20989;-65
2022/09/07 08:11:17;;;;;;;5.80;1.80;;;;;;;19.31;45.00;100227.95;1723512;82;21821;-65
2022/09/07 08:13:46;;;;;;;3.22;1.12;;;;;;;19.37;47.74;100231.66;1693003;84;20968;-65
2022/09/07 08:16:13;;;;;;;3.02;0.85;;;;;;;19.55;46.93;100234.52;1681869;84;21039;-65
2022/09/07 08:18:40;;;;;;;2.33;1.17;;;;;;;19.72;44.55;100226.28;1690709;84;20987;-65
2022/09/07 08:21:10;;;;;;;4.33;1.40;;;;;;;19.72;41.09;100227.66;1688227;84;21126;-65
2022/09/07 08:23:37;;;;;;;2.60;1.20;;;;;;;19.36;42.66;100222.30;1682490;84;21011;-64
2022/09/07 08:26:04;;;;;;;4.03;1.30;;;;;;;19.21;43.58;100216.63;1687669;84;21161;-64
2022/09/07 08:28:33;;;;;;;4.12;1.15;;;;;;;19.07;42.77;100215.91;1682847;84;21067;-65
2022/09/07 08:31:06;;;;;;;3.02;1.50;;;;;;;18.83;43.58;100214.06;1693332;83;21153;-65
2022/09/07 08:33:35;;;;;;;2.65;1.47;;;;;;;18.66;41.82;100204.30;1693421;84;21909;-65
2022/09/07 08:36:03;;;;;;;3.45;1.30;;;;;;;18.55;45.59;100197.39;1690300;84;21118;-64
2022/09/07 08:38:31;;;;;;;4.35;1.67;;;;;;;18.74;46.60;100196.06;1685580;83;21048;-64
2022/09/07 08:40:59;;;;;;;3.95;1.85;;;;;;;19.02;46.37;100202.81;1696640;83;21633;-64
2022/09/07 08:43:50;;;;;;;3.45;1.50;;;;;;;19.02;46.37;100202.81;1660060;84;21054;-64
2022/09/07 08:46:46;;;;;;;2.25;1.35;;;;;;;19.14;42.73;100198.89;1686215;84;21176;-64
2022/09/07 08:49:19;;;;;;;4.58;1.75;;;;;;;18.65;44.67;100193.83;1681506;83;21067;-64
2022/09/07 08:51:57;;;;;;;3.37;1.70;;;;;;;18.65;44.67;100193.83;1660266;86;21676;-64
2022/09/07 08:54:24;;;;;;;2.42;1.37;;;;;;;18.74;43.06;100192.52;1693701;82;21079;-65
2022/09/07 08:56:52;;;;;;;2.70;1.65;;;;;;;18.68;43.57;100190.44;1724519;82;21459;-64
2022/09/07 08:59:26;;;;;;;2.80;1.50;;;;;;;18.82;44.02;100188.97;1675988;83;21000;-65
2022/09/07 09:01:52;;;;;;;3.87;1.70;;;;;;;19.14;45.83;100187.29;1722393;82;21106;-64
2022/09/07 09:04:25;;;;;;;4.20;1.80;;;;;;;19.49;43.41;100175.02;1717020;81;21563;-65
2022/09/07 09:07:15;;;;;;;3.58;1.67;;;;;;;19.52;42.20;100174.41;1731174;82;21035;-65
2022/09/07 09:10:20;;;;;;;6.60;1.90;;;;;;;19.24;40.48;100180.11;1717750;81;21473;-65
2022/09/07 09:13:06;;;;;;;2.80;1.50;;;;;;;18.97;43.92;100178.92;1711508;82;21392;-65
2022/09/07 09:15:59;;;;;;;3.77;1.87;;;;;;;19.04;42.93;100168.25;1724996;82;21452;-65
2022/09/07 09:19:06;;;;;;;2.87;1.42;;;;;;;19.05;42.26;100162.99;1723950;82;21067;-64
2022/09/07 09:21:34;;;;;;;3.35;1.90;;;;;;;19.05;42.26;100162.99;1730993;81;21071;-65
2022/09/07 09:24:15;;;;;;;6.03;1.70;;;;;;;19.01;43.59;100172.21;1719110;81;21059;-65
2022/09/07 09:26:48;;;;;;;3.83;1.80;;;;;;;19.19;42.68;100161.51;1721837;82;22046;-65
2022/09/07 09:29:18;;;;;;;3.52;1.30;;;;;;;19.41;43.48;100158.70;1716525;82;21079;-64
2022/09/07 09:31:44;;;;;;;3.05;1.67;;;;;;;19.66;43.76;100159.91;1712868;82;21652;-64
2022/09/07 09:34:14;;;;;;;3.17;1.70;;;;;;;19.66;42.26;100159.31;1711783;82;21005;-64
2022/09/07 09:36:50;;;;;;;2.40;1.40;;;;;;;19.68;43.00;100161.77;1723544;82;21059;-65
2022/09/07 09:39:33;;;;;;;3.42;1.57;;;;;;;19.68;43.03;100152.10;1725606;82;21760;-64
2022/09/07 09:42:13;;;;;;;3.20;1.50;;;;;;;19.72;42.00;100146.19;1659368;85;21130;-64
2022/09/07 09:44:40;;;;;;;3.33;1.50;;;;;;;19.68;42.84;100145.20;1723249;81;21526;-64
2022/09/07 09:47:09;;;;;;;4.05;1.62;;;;;;;19.68;42.84;100145.20;1735382;80;21086;-64
2022/09/07 09:49:37;;;;;;;2.75;1.45;;;;;;;19.67;43.17;100138.04;1739923;80;21085;-65
2022/09/07 09:52:16;;;;;;;3.90;1.65;;;;;;;19.63;43.49;100138.44;1725214;81;21085;-65
2022/09/07 09:54:43;;;;;;;4.15;1.40;;;;;;;19.60;42.45;100139.08;1732817;81;21494;-65
2022/09/07 09:57:36;;;;;;;4.37;1.40;;;;;;;19.47;41.57;100127.61;1758326;80;20994;-64
2022/09/07 10:00:03;;;;;;;4.03;1.70;;;;;;;19.26;40.76;100129.56;1690569;84;20963;-64
2022/09/07 10:02:32;;;;;;;2.77;1.47;;;;;;;18.77;39.89;100127.07;1724270;82;21012;-65
2022/09/07 10:04:59;;;;;;;2.80;1.57;;;;;;;18.33;41.01;100124.57;1729189;82;21015;-64
2022/09/07 10:07:26;;;;;;;3.45;1.80;;;;;;;18.10;41.79;100127.09;1720845;82;21031;-64
2022/09/07 10:09:54;;;;;;;4.30;1.57;;;;;;;18.02;44.06;100130.58;1718773;82;21036;-64
2022/09/07 10:12:32;;;;;;;3.62;1.30;;;;;;;18.02;42.49;100125.63;1726411;82;21126;-63
2022/09/07 10:14:58;;;;;;;;;;;;;;;17.91;42.88;100123.67;1726582;82;21273;-64
2022/09/07 10:17:42;;;;;;;2.85;1.47;;;;;;;17.76;41.02;100120.70;1718339;82;20095;-64
2022/09/07 10:23:03;;;;;;;4.05;1.70;;;;;;;17.52;44.16;100117.91;1686552;82;21186;-74
2022/09/07 10:25:35;;;;;;;5.58;1.67;;;;;;;17.60;44.17;100113.09;1668928;85;21050;-75
2022/09/07 10:35:31;;;;;;;2.83;1.32;;;;;;;17.95;44.93;100110.09;1699389;81;21715;-73
2022/09/07 10:38:10;;;;;;;4.62;1.50;;;;;;;17.83;44.41;100104.56;1699069;83;21105;-73
2022/09/07 10:40:47;;;;;;;5.40;1.37;;;;;;;17.85;44.09;100104.27;1677469;83;21066;-73
2022/09/07 10:43:47;;;;;;;4.05;1.50;;;;;;;17.87;46.21;100097.87;1673513;83;21188;-75
2022/09/07 10:46:43;;;;;;;3.52;1.32;;;;;;;17.94;45.06;100094.68;1685638;83;21010;-74
2022/09/07 10:49:42;;;;;;;3.87;1.77;;;;;;;17.89;43.05;100085.41;1674604;83;21696;-75
2022/09/07 10:52:31;;;;;;;3.42;1.65;;;;;;;17.83;45.59;100090.80;1682608;85;21045;-74
2022/09/07 10:55:10;;;;;;;3.67;1.52;;;;;;;17.88;45.88;100085.19;1673586;84;21081;-75
2022/09/07 10:58:03;;;;;;;3.67;1.90;;;;;;;17.97;46.71;100089.92;1675617;85;21018;-73
2022/09/07 11:00:38;;;;;;;3.00;1.62;;;;;;;18.05;46.01;100085.88;1689622;83;21053;-73
2022/09/07 11:03:16;;;;;;;3.87;1.40;;;;;;;18.09;46.32;100086.88;1678428;85;21156;-72
2022/09/07 11:05:59;;;;;;;4.30;1.50;;;;;;;18.11;44.56;100086.55;1675730;83;21069;-73
2022/09/07 11:08:52;;;;;;;2.92;1.52;;;;;;;17.92;43.97;100081.80;1680543;83;21473;-74
2022/09/07 11:11:34;;;;;;;3.80;1.50;;;;;;;17.84;43.11;100072.34;1679715;83;21041;-74
2022/09/07 11:14:09;;;;;;;4.05;2.15;;;;;;;17.83;45.67;100071.52;1684854;83;21097;-76
2022/09/07 11:16:38;;;;;;;6.05;1.70;;;;;;;17.87;44.93;100075.84;1687367;83;21038;-73
2022/09/07 11:19:15;;;;;;;5.97;1.50;;;;;;;17.97;44.86;100069.27;1689449;83;21065;-75
2022/09/07 11:22:01;;;;;;;6.80;2.12;;;;;;;18.00;45.38;100072.20;1679969;83;20986;-73
2022/09/07 11:24:37;;;;;;;3.52;1.35;;;;;;;18.04;45.31;100064.13;1627506;87;21159;-74
2022/09/07 11:27:11;;;;;;;3.08;1.50;;;;;;;18.08;44.30;100059.07;1686276;85;21037;-74
2022/09/07 11:29:49;;;;;;;3.25;1.47;;;;;;;18.09;44.31;100060.70;1687156;83;21034;-75
2022/09/07 11:32:21;;;;;;;5.65;1.50;;;;;;;18.07;44.98;100039.53;1683091;83;21011;-76
2022/09/07 11:34:58;;;;;;;4.83;1.52;;;;;;;18.11;44.07;100042.47;1696765;82;21559;-76
2022/09/07 11:37:32;;;;;;;3.50;1.50;;;;;;;18.10;42.93;100046.38;1701058;82;21545;-74
2022/09/07 11:40:23;;;;;;;2.40;1.50;;;;;;;18.07;41.76;100035.95;1694055;82;21082;-73
2022/09/07 11:42:58;;;;;;;4.53;1.75;;;;;;;17.97;41.13;100041.16;1703662;82;21582;-75
2022/09/07 11:45:34;;;;;;;4.40;1.52;;;;;;;17.80;40.69;100036.91;1707007;83;21629;-75
2022/09/07 11:49:58;;;;;;;5.85;2.00;;;;;;;17.76;44.09;100027.64;1783982;79;22965;-75
2022/09/07 11:52:38;;;;;;;6.58;1.80;;;;;;;17.81;45.53;100038.55;1753870;81;20984;-75
